Archival Weather

Chicago O'Hare International

Chicago, Illinois (KORD)

Report from: Tuesday, August 16, 2022 7:51 PM CDT
Current time: Sunday, February 25, 2024 3:53 PM CST

Current weather – Weather history – Daily summaries
Weather forecast

Temperature22.2°C (72.0°F)
Dew point9.4°C (48.9°F)
Winds 12 kts (6.2 m/s, 13.8 mph) North-Northeast (30°)
Visibility10 mi. (16.1 km)
Clouds Few clouds 25,000 ft. (7,620 m)
Altimeter30.10 in.Hg (1019 mB)
Relative humidity44 %
Density altitude818 ft. (249 m)
Sea-level pressure101.9 kPa (1019 mB, 30.09 in.Hg)
Remarks Automated weather observing station with precipitation discriminator
Flight conditions Visual Meteorological Conditions
Raw dataKORD 170051Z 03012KT 10SM FEW250 22/09 A3010 RMK AO2 SLP189 T02220094
An error has occurred. This application may no longer respond until reloaded. Reload 🗙